sensor_id;sensor_type;location;lat;lon;timestamp;P1;durP1;ratioP1;P2;durP2;ratioP2
11255;SDS011;5685;52.384;13.420;2023-06-19T00:01:14;76.03;;;41.60;;
11255;SDS011;5685;52.384;13.420;2023-06-19T00:04:18;76.00;;;41.37;;
11255;SDS011;5685;52.384;13.420;2023-06-19T00:07:21;76.83;;;41.80;;
11255;SDS011;5685;52.384;13.420;2023-06-19T00:10:24;75.97;;;41.37;;
11255;SDS011;5685;52.384;13.420;2023-06-19T00:13:27;75.70;;;41.17;;
11255;SDS011;5685;52.384;13.420;2023-06-19T00:16:30;75.73;;;41.27;;
11255;SDS011;5685;52.384;13.420;2023-06-19T00:19:34;76.07;;;41.40;;
11255;SDS011;5685;52.384;13.420;2023-06-19T00:22:37;75.63;;;41.20;;
11255;SDS011;5685;52.384;13.420;2023-06-19T00:25:39;75.57;;;41.10;;
11255;SDS011;5685;52.384;13.420;2023-06-19T00:28:43;75.97;;;41.53;;
11255;SDS011;5685;52.384;13.420;2023-06-19T00:31:45;75.97;;;41.37;;
11255;SDS011;5685;52.384;13.420;2023-06-19T00:34:50;76.20;;;41.60;;
11255;SDS011;5685;52.384;13.420;2023-06-19T00:37:52;76.23;;;41.50;;
11255;SDS011;5685;52.384;13.420;2023-06-19T00:40:55;76.20;;;41.50;;
11255;SDS011;5685;52.384;13.420;2023-06-19T00:43:58;76.33;;;41.63;;
11255;SDS011;5685;52.384;13.420;2023-06-19T00:47:01;75.60;;;41.20;;
11255;SDS011;5685;52.384;13.420;2023-06-19T00:50:06;75.93;;;41.30;;
11255;SDS011;5685;52.384;13.420;2023-06-19T00:53:09;75.87;;;41.20;;
11255;SDS011;5685;52.384;13.420;2023-06-19T00:56:12;75.93;;;41.23;;
11255;SDS011;5685;52.384;13.420;2023-06-19T00:59:16;75.37;;;40.90;;
11255;SDS011;5685;52.384;13.420;2023-06-19T01:02:20;76.03;;;41.40;;
11255;SDS011;5685;52.384;13.420;2023-06-19T01:05:25;76.03;;;41.33;;
11255;SDS011;5685;52.384;13.420;2023-06-19T01:08:34;76.00;;;41.33;;
11255;SDS011;5685;52.384;13.420;2023-06-19T01:11:46;76.13;;;41.30;;
11255;SDS011;5685;52.384;13.420;2023-06-19T01:14:52;75.97;;;41.30;;
11255;SDS011;5685;52.384;13.420;2023-06-19T01:17:56;75.80;;;41.10;;
11255;SDS011;5685;52.384;13.420;2023-06-19T01:21:10;76.30;;;41.33;;
11255;SDS011;5685;52.384;13.420;2023-06-19T01:24:14;75.87;;;41.23;;
11255;SDS011;5685;52.384;13.420;2023-06-19T01:27:17;76.37;;;41.30;;
11255;SDS011;5685;52.384;13.420;2023-06-19T01:30:20;75.90;;;41.17;;
11255;SDS011;5685;52.384;13.420;2023-06-19T01:33:25;76.00;;;41.17;;
11255;SDS011;5685;52.384;13.420;2023-06-19T01:36:28;75.40;;;40.93;;
11255;SDS011;5685;52.384;13.420;2023-06-19T01:39:33;76.20;;;41.07;;
11255;SDS011;5685;52.384;13.420;2023-06-19T01:42:37;76.47;;;41.30;;
11255;SDS011;5685;52.384;13.420;2023-06-19T01:45:40;75.70;;;40.90;;
11255;SDS011;5685;52.384;13.420;2023-06-19T01:48:43;75.87;;;41.13;;
11255;SDS011;5685;52.384;13.420;2023-06-19T01:51:45;76.03;;;41.30;;
11255;SDS011;5685;52.384;13.420;2023-06-19T01:54:50;76.10;;;41.37;;
11255;SDS011;5685;52.384;13.420;2023-06-19T01:57:52;75.93;;;41.27;;
11255;SDS011;5685;52.384;13.420;2023-06-19T02:00:55;76.20;;;41.57;;
11255;SDS011;5685;52.384;13.420;2023-06-19T02:03:58;75.77;;;41.30;;
11255;SDS011;5685;52.384;13.420;2023-06-19T02:07:00;75.50;;;41.30;;
11255;SDS011;5685;52.384;13.420;2023-06-19T02:10:05;75.87;;;41.50;;
11255;SDS011;5685;52.384;13.420;2023-06-19T02:13:09;76.07;;;41.57;;
11255;SDS011;5685;52.384;13.420;2023-06-19T02:16:12;75.80;;;41.50;;
11255;SDS011;5685;52.384;13.420;2023-06-19T02:19:14;76.00;;;41.53;;
11255;SDS011;5685;52.384;13.420;2023-06-19T02:22:17;76.03;;;41.60;;
11255;SDS011;5685;52.384;13.420;2023-06-19T02:25:21;76.30;;;41.73;;
11255;SDS011;5685;52.384;13.420;2023-06-19T02:28:24;75.47;;;41.37;;
11255;SDS011;5685;52.384;13.420;2023-06-19T02:31:26;75.90;;;41.63;;
11255;SDS011;5685;52.384;13.420;2023-06-19T02:34:29;75.80;;;41.47;;
11255;SDS011;5685;52.384;13.420;2023-06-19T02:37:31;75.50;;;41.47;;
11255;SDS011;5685;52.384;13.420;2023-06-19T02:40:37;76.03;;;41.67;;
11255;SDS011;5685;52.384;13.420;2023-06-19T02:43:40;76.17;;;41.80;;
11255;SDS011;5685;52.384;13.420;2023-06-19T02:46:43;76.33;;;41.70;;
11255;SDS011;5685;52.384;13.420;2023-06-19T02:49:46;75.73;;;41.50;;
11255;SDS011;5685;52.384;13.420;2023-06-19T02:52:48;75.57;;;41.50;;
11255;SDS011;5685;52.384;13.420;2023-06-19T02:55:52;75.90;;;41.60;;
11255;SDS011;5685;52.384;13.420;2023-06-19T02:58:55;75.83;;;41.53;;
11255;SDS011;5685;52.384;13.420;2023-06-19T03:01:59;75.50;;;41.43;;
11255;SDS011;5685;52.384;13.420;2023-06-19T03:05:02;75.77;;;41.60;;
11255;SDS011;5685;52.384;13.420;2023-06-19T03:08:05;75.87;;;41.57;;
11255;SDS011;5685;52.384;13.420;2023-06-19T03:11:09;75.43;;;41.47;;
11255;SDS011;5685;52.384;13.420;2023-06-19T03:14:13;76.00;;;41.70;;
11255;SDS011;5685;52.384;13.420;2023-06-19T03:17:15;75.70;;;41.53;;
11255;SDS011;5685;52.384;13.420;2023-06-19T03:20:18;75.93;;;41.70;;
11255;SDS011;5685;52.384;13.420;2023-06-19T03:23:21;76.43;;;41.90;;
11255;SDS011;5685;52.384;13.420;2023-06-19T03:26:25;75.53;;;41.53;;
11255;SDS011;5685;52.384;13.420;2023-06-19T03:29:28;75.70;;;41.57;;
11255;SDS011;5685;52.384;13.420;2023-06-19T03:32:31;75.77;;;41.57;;
11255;SDS011;5685;52.384;13.420;2023-06-19T03:35:33;75.67;;;41.50;;
11255;SDS011;5685;52.384;13.420;2023-06-19T03:38:36;76.10;;;41.87;;
11255;SDS011;5685;52.384;13.420;2023-06-19T03:41:40;76.33;;;41.97;;
11255;SDS011;5685;52.384;13.420;2023-06-19T03:44:43;75.50;;;41.40;;
11255;SDS011;5685;52.384;13.420;2023-06-19T03:47:45;76.00;;;41.73;;
11255;SDS011;5685;52.384;13.420;2023-06-19T03:50:48;76.00;;;41.73;;
11255;SDS011;5685;52.384;13.420;2023-06-19T03:53:51;76.70;;;42.13;;
11255;SDS011;5685;52.384;13.420;2023-06-19T03:56:55;76.07;;;41.87;;
11255;SDS011;5685;52.384;13.420;2023-06-19T03:59:57;75.80;;;41.70;;
11255;SDS011;5685;52.384;13.420;2023-06-19T04:03:00;76.33;;;41.97;;
11255;SDS011;5685;52.384;13.420;2023-06-19T04:06:03;75.40;;;41.50;;
11255;SDS011;5685;52.384;13.420;2023-06-19T04:09:05;75.97;;;41.77;;
11255;SDS011;5685;52.384;13.420;2023-06-19T04:12:10;75.47;;;41.50;;
11255;SDS011;5685;52.384;13.420;2023-06-19T04:15:12;75.53;;;41.50;;
11255;SDS011;5685;52.384;13.420;2023-06-19T04:18:15;75.43;;;41.63;;
11255;SDS011;5685;52.384;13.420;2023-06-19T04:21:17;75.80;;;41.77;;
11255;SDS011;5685;52.384;13.420;2023-06-19T04:24:20;75.47;;;41.57;;
11255;SDS011;5685;52.384;13.420;2023-06-19T04:27:24;75.93;;;41.87;;
11255;SDS011;5685;52.384;13.420;2023-06-19T04:30:26;75.73;;;41.57;;
11255;SDS011;5685;52.384;13.420;2023-06-19T04:33:29;75.33;;;41.40;;
11255;SDS011;5685;52.384;13.420;2023-06-19T04:36:32;75.80;;;41.73;;
11255;SDS011;5685;52.384;13.420;2023-06-19T04:39:35;75.30;;;41.37;;
11255;SDS011;5685;52.384;13.420;2023-06-19T04:42:39;76.53;;;42.00;;
11255;SDS011;5685;52.384;13.420;2023-06-19T04:45:42;75.67;;;41.70;;
11255;SDS011;5685;52.384;13.420;2023-06-19T04:48:44;76.40;;;42.13;;
11255;SDS011;5685;52.384;13.420;2023-06-19T04:51:50;75.93;;;41.80;;
11255;SDS011;5685;52.384;13.420;2023-06-19T04:54:53;75.90;;;41.70;;
11255;SDS011;5685;52.384;13.420;2023-06-19T04:57:57;75.57;;;41.77;;
11255;SDS011;5685;52.384;13.420;2023-06-19T05:01:00;76.07;;;41.93;;
11255;SDS011;5685;52.384;13.420;2023-06-19T05:04:03;76.13;;;41.90;;
11255;SDS011;5685;52.384;13.420;2023-06-19T05:07:06;75.63;;;41.60;;
11255;SDS011;5685;52.384;13.420;2023-06-19T05:10:10;75.67;;;41.73;;
11255;SDS011;5685;52.384;13.420;2023-06-19T05:13:14;75.27;;;41.47;;
11255;SDS011;5685;52.384;13.420;2023-06-19T05:16:18;75.90;;;41.87;;
11255;SDS011;5685;52.384;13.420;2023-06-19T05:19:23;75.53;;;41.60;;
11255;SDS011;5685;52.384;13.420;2023-06-19T05:22:25;75.83;;;41.67;;
11255;SDS011;5685;52.384;13.420;2023-06-19T05:25:28;75.53;;;41.60;;
11255;SDS011;5685;52.384;13.420;2023-06-19T05:28:32;75.80;;;41.77;;
11255;SDS011;5685;52.384;13.420;2023-06-19T05:31:35;75.97;;;41.97;;
11255;SDS011;5685;52.384;13.420;2023-06-19T05:34:38;76.20;;;41.97;;
11255;SDS011;5685;52.384;13.420;2023-06-19T05:37:40;75.80;;;41.87;;
11255;SDS011;5685;52.384;13.420;2023-06-19T05:40:43;75.47;;;41.50;;
11255;SDS011;5685;52.384;13.420;2023-06-19T05:43:47;75.23;;;41.50;;
11255;SDS011;5685;52.384;13.420;2023-06-19T05:46:50;75.73;;;41.43;;
11255;SDS011;5685;52.384;13.420;2023-06-19T05:49:53;75.70;;;41.70;;
11255;SDS011;5685;52.384;13.420;2023-06-19T05:52:55;76.00;;;41.80;;
11255;SDS011;5685;52.384;13.420;2023-06-19T05:55:58;75.67;;;41.60;;
11255;SDS011;5685;52.384;13.420;2023-06-19T05:59:02;75.53;;;41.53;;
11255;SDS011;5685;52.384;13.420;2023-06-19T06:02:05;75.40;;;41.50;;
11255;SDS011;5685;52.384;13.420;2023-06-19T06:05:08;75.77;;;41.63;;
11255;SDS011;5685;52.384;13.420;2023-06-19T06:08:11;75.47;;;41.73;;
11255;SDS011;5685;52.384;13.420;2023-06-19T06:11:14;75.53;;;41.60;;
11255;SDS011;5685;52.384;13.420;2023-06-19T06:14:18;77.17;;;42.13;;
11255;SDS011;5685;52.384;13.420;2023-06-19T06:17:20;74.53;;;41.13;;
11255;SDS011;5685;52.384;13.420;2023-06-19T06:20:23;76.23;;;41.97;;
11255;SDS011;5685;52.384;13.420;2023-06-19T06:23:26;75.93;;;41.83;;
11255;SDS011;5685;52.384;13.420;2023-06-19T06:26:28;75.93;;;41.80;;
11255;SDS011;5685;52.384;13.420;2023-06-19T06:29:33;75.30;;;41.53;;
11255;SDS011;5685;52.384;13.420;2023-06-19T06:32:37;75.67;;;41.70;;
11255;SDS011;5685;52.384;13.420;2023-06-19T06:35:39;75.10;;;41.50;;
11255;SDS011;5685;52.384;13.420;2023-06-19T06:38:42;76.03;;;41.90;;
11255;SDS011;5685;52.384;13.420;2023-06-19T06:41:45;76.20;;;42.00;;
11255;SDS011;5685;52.384;13.420;2023-06-19T06:44:49;75.37;;;41.67;;
11255;SDS011;5685;52.384;13.420;2023-06-19T06:47:51;75.87;;;41.73;;
11255;SDS011;5685;52.384;13.420;2023-06-19T06:50:54;75.23;;;41.53;;
11255;SDS011;5685;52.384;13.420;2023-06-19T06:54:01;75.43;;;41.60;;
11255;SDS011;5685;52.384;13.420;2023-06-19T06:57:03;75.63;;;41.87;;
11255;SDS011;5685;52.384;13.420;2023-06-19T07:00:08;75.83;;;41.77;;
11255;SDS011;5685;52.384;13.420;2023-06-19T07:03:12;75.30;;;41.60;;
11255;SDS011;5685;52.384;13.420;2023-06-19T07:06:15;75.80;;;41.93;;
11255;SDS011;5685;52.384;13.420;2023-06-19T07:09:17;76.10;;;42.00;;
11255;SDS011;5685;52.384;13.420;2023-06-19T07:12:21;75.23;;;41.63;;
11255;SDS011;5685;52.384;13.420;2023-06-19T07:15:25;75.67;;;41.77;;
11255;SDS011;5685;52.384;13.420;2023-06-19T07:18:28;75.60;;;41.73;;
11255;SDS011;5685;52.384;13.420;2023-06-19T07:21:30;75.47;;;41.60;;
11255;SDS011;5685;52.384;13.420;2023-06-19T07:24:33;76.03;;;41.90;;
11255;SDS011;5685;52.384;13.420;2023-06-19T07:27:36;75.77;;;41.67;;
11255;SDS011;5685;52.384;13.420;2023-06-19T07:30:40;75.67;;;41.70;;
11255;SDS011;5685;52.384;13.420;2023-06-19T07:33:44;76.17;;;41.97;;
11255;SDS011;5685;52.384;13.420;2023-06-19T07:36:47;75.70;;;41.80;;
11255;SDS011;5685;52.384;13.420;2023-06-19T07:39:50;76.43;;;42.00;;
11255;SDS011;5685;52.384;13.420;2023-06-19T07:42:53;75.60;;;41.77;;
11255;SDS011;5685;52.384;13.420;2023-06-19T07:45:57;75.87;;;41.87;;
11255;SDS011;5685;52.384;13.420;2023-06-19T07:49:00;75.67;;;41.70;;
11255;SDS011;5685;52.384;13.420;2023-06-19T07:52:02;75.27;;;41.57;;
11255;SDS011;5685;52.384;13.420;2023-06-19T07:55:06;76.03;;;42.00;;
11255;SDS011;5685;52.384;13.420;2023-06-19T07:58:09;75.57;;;41.93;;
11255;SDS011;5685;52.384;13.420;2023-06-19T08:01:13;76.13;;;42.00;;
11255;SDS011;5685;52.384;13.420;2023-06-19T08:04:16;75.30;;;41.67;;
11255;SDS011;5685;52.384;13.420;2023-06-19T08:07:18;75.47;;;41.67;;
11255;SDS011;5685;52.384;13.420;2023-06-19T08:10:21;75.87;;;41.83;;
11255;SDS011;5685;52.384;13.420;2023-06-19T08:13:24;75.73;;;41.90;;
11255;SDS011;5685;52.384;13.420;2023-06-19T08:16:28;75.47;;;41.70;;
11255;SDS011;5685;52.384;13.420;2023-06-19T08:19:30;76.03;;;42.03;;
11255;SDS011;5685;52.384;13.420;2023-06-19T08:22:33;75.60;;;41.77;;
11255;SDS011;5685;52.384;13.420;2023-06-19T08:25:36;76.43;;;42.10;;
11255;SDS011;5685;52.384;13.420;2023-06-19T08:28:38;75.60;;;41.77;;
11255;SDS011;5685;52.384;13.420;2023-06-19T08:31:43;76.00;;;41.93;;
11255;SDS011;5685;52.384;13.420;2023-06-19T08:34:45;75.97;;;41.87;;
11255;SDS011;5685;52.384;13.420;2023-06-19T08:37:48;75.77;;;41.90;;
11255;SDS011;5685;52.384;13.420;2023-06-19T08:40:50;75.73;;;41.77;;
11255;SDS011;5685;52.384;13.420;2023-06-19T08:43:53;75.50;;;41.77;;
11255;SDS011;5685;52.384;13.420;2023-06-19T08:46:58;76.40;;;42.03;;
11255;SDS011;5685;52.384;13.420;2023-06-19T08:50:01;76.03;;;41.93;;
11255;SDS011;5685;52.384;13.420;2023-06-19T08:53:03;76.20;;;42.07;;
11255;SDS011;5685;52.384;13.420;2023-06-19T08:56:06;76.23;;;42.03;;
11255;SDS011;5685;52.384;13.420;2023-06-19T08:59:09;76.37;;;42.10;;
11255;SDS011;5685;52.384;13.420;2023-06-19T09:02:14;76.30;;;42.07;;
11255;SDS011;5685;52.384;13.420;2023-06-19T09:05:17;75.73;;;41.77;;
11255;SDS011;5685;52.384;13.420;2023-06-19T09:08:21;76.40;;;42.23;;
11255;SDS011;5685;52.384;13.420;2023-06-19T09:11:23;76.17;;;42.10;;
11255;SDS011;5685;52.384;13.420;2023-06-19T09:14:32;76.20;;;42.17;;
11255;SDS011;5685;52.384;13.420;2023-06-19T09:17:37;76.13;;;42.17;;
11255;SDS011;5685;52.384;13.420;2023-06-19T09:20:40;76.10;;;42.03;;
11255;SDS011;5685;52.384;13.420;2023-06-19T09:23:45;76.20;;;42.07;;
11255;SDS011;5685;52.384;13.420;2023-06-19T09:26:50;76.00;;;42.00;;
11255;SDS011;5685;52.384;13.420;2023-06-19T09:29:53;75.73;;;41.83;;
11255;SDS011;5685;52.384;13.420;2023-06-19T09:33:05;76.30;;;42.10;;
11255;SDS011;5685;52.384;13.420;2023-06-19T09:36:08;76.00;;;41.97;;
11255;SDS011;5685;52.384;13.420;2023-06-19T09:39:11;76.03;;;42.07;;
11255;SDS011;5685;52.384;13.420;2023-06-19T09:42:14;75.77;;;41.90;;
11255;SDS011;5685;52.384;13.420;2023-06-19T09:45:17;75.87;;;41.87;;
11255;SDS011;5685;52.384;13.420;2023-06-19T09:48:22;75.67;;;41.87;;
11255;SDS011;5685;52.384;13.420;2023-06-19T09:51:30;76.57;;;42.27;;
11255;SDS011;5685;52.384;13.420;2023-06-19T09:54:34;76.33;;;42.17;;
11255;SDS011;5685;52.384;13.420;2023-06-19T09:57:37;75.80;;;41.93;;
11255;SDS011;5685;52.384;13.420;2023-06-19T10:00:41;75.47;;;41.77;;
11255;SDS011;5685;52.384;13.420;2023-06-19T10:03:46;76.37;;;42.17;;
11255;SDS011;5685;52.384;13.420;2023-06-19T10:06:48;75.73;;;41.93;;
11255;SDS011;5685;52.384;13.420;2023-06-19T10:10:00;76.03;;;42.07;;
11255;SDS011;5685;52.384;13.420;2023-06-19T10:13:12;76.37;;;42.23;;
11255;SDS011;5685;52.384;13.420;2023-06-19T10:16:22;76.47;;;42.23;;
11255;SDS011;5685;52.384;13.420;2023-06-19T10:19:26;75.33;;;41.67;;
11255;SDS011;5685;52.384;13.420;2023-06-19T10:22:30;75.80;;;41.87;;
11255;SDS011;5685;52.384;13.420;2023-06-19T10:25:34;76.20;;;42.17;;
11255;SDS011;5685;52.384;13.420;2023-06-19T10:28:37;76.77;;;42.33;;
11255;SDS011;5685;52.384;13.420;2023-06-19T10:31:40;76.40;;;42.20;;
11255;SDS011;5685;52.384;13.420;2023-06-19T10:34:46;75.80;;;42.00;;
11255;SDS011;5685;52.384;13.420;2023-06-19T10:37:49;75.90;;;42.00;;
11255;SDS011;5685;52.384;13.420;2023-06-19T10:40:52;76.20;;;42.20;;
11255;SDS011;5685;52.384;13.420;2023-06-19T10:43:55;76.13;;;42.13;;
11255;SDS011;5685;52.384;13.420;2023-06-19T10:46:58;76.10;;;42.10;;
11255;SDS011;5685;52.384;13.420;2023-06-19T10:50:03;76.37;;;42.37;;
11255;SDS011;5685;52.384;13.420;2023-06-19T10:53:06;76.07;;;42.10;;
11255;SDS011;5685;52.384;13.420;2023-06-19T10:56:09;75.87;;;41.93;;
11255;SDS011;5685;52.384;13.420;2023-06-19T10:59:11;76.50;;;42.43;;
11255;SDS011;5685;52.384;13.420;2023-06-19T11:02:15;75.50;;;42.07;;
11255;SDS011;5685;52.384;13.420;2023-06-19T11:05:21;76.50;;;42.37;;
11255;SDS011;5685;52.384;13.420;2023-06-19T11:08:24;76.60;;;42.40;;
11255;SDS011;5685;52.384;13.420;2023-06-19T11:11:36;76.10;;;42.10;;
11255;SDS011;5685;52.384;13.420;2023-06-19T11:14:40;76.50;;;42.37;;
11255;SDS011;5685;52.384;13.420;2023-06-19T11:17:42;76.20;;;42.23;;
11255;SDS011;5685;52.384;13.420;2023-06-19T11:20:47;75.40;;;41.87;;
11255;SDS011;5685;52.384;13.420;2023-06-19T11:23:51;76.17;;;42.23;;
11255;SDS011;5685;52.384;13.420;2023-06-19T11:26:53;75.87;;;42.10;;
11255;SDS011;5685;52.384;13.420;2023-06-19T11:29:59;76.17;;;42.27;;
11255;SDS011;5685;52.384;13.420;2023-06-19T11:33:05;76.00;;;42.13;;
11255;SDS011;5685;52.384;13.420;2023-06-19T11:36:25;75.37;;;41.77;;
11255;SDS011;5685;52.384;13.420;2023-06-19T11:39:28;75.43;;;41.73;;
11255;SDS011;5685;52.384;13.420;2023-06-19T11:42:31;75.90;;;42.17;;
11255;SDS011;5685;52.384;13.420;2023-06-19T11:45:44;76.33;;;42.30;;
11255;SDS011;5685;52.384;13.420;2023-06-19T11:48:47;75.87;;;42.13;;
11255;SDS011;5685;52.384;13.420;2023-06-19T11:51:51;76.37;;;42.33;;
11255;SDS011;5685;52.384;13.420;2023-06-19T11:54:54;76.07;;;42.17;;
11255;SDS011;5685;52.384;13.420;2023-06-19T11:57:57;76.10;;;42.17;;
11255;SDS011;5685;52.384;13.420;2023-06-19T12:00:59;76.40;;;42.40;;
11255;SDS011;5685;52.384;13.420;2023-06-19T12:04:03;75.87;;;42.07;;
11255;SDS011;5685;52.384;13.420;2023-06-19T12:07:07;75.47;;;41.93;;
11255;SDS011;5685;52.384;13.420;2023-06-19T12:10:11;76.43;;;42.47;;
11255;SDS011;5685;52.384;13.420;2023-06-19T12:13:14;76.87;;;42.63;;
11255;SDS011;5685;52.384;13.420;2023-06-19T12:16:16;76.07;;;42.27;;
11255;SDS011;5685;52.384;13.420;2023-06-19T12:19:19;76.03;;;42.27;;
11255;SDS011;5685;52.384;13.420;2023-06-19T12:22:23;76.33;;;42.40;;
11255;SDS011;5685;52.384;13.420;2023-06-19T12:25:26;76.40;;;42.43;;
11255;SDS011;5685;52.384;13.420;2023-06-19T12:28:28;76.47;;;42.43;;
11255;SDS011;5685;52.384;13.420;2023-06-19T12:31:31;76.07;;;42.27;;
11255;SDS011;5685;52.384;13.420;2023-06-19T12:34:34;76.17;;;42.20;;
11255;SDS011;5685;52.384;13.420;2023-06-19T12:37:38;75.87;;;42.20;;
11255;SDS011;5685;52.384;13.420;2023-06-19T12:40:40;76.37;;;42.43;;
11255;SDS011;5685;52.384;13.420;2023-06-19T12:43:43;76.37;;;42.40;;
11255;SDS011;5685;52.384;13.420;2023-06-19T12:46:46;75.40;;;41.87;;
11255;SDS011;5685;52.384;13.420;2023-06-19T12:49:48;76.53;;;42.40;;
11255;SDS011;5685;52.384;13.420;2023-06-19T12:52:52;75.87;;;42.17;;
11255;SDS011;5685;52.384;13.420;2023-06-19T12:55:56;76.60;;;42.50;;
11255;SDS011;5685;52.384;13.420;2023-06-19T12:58:59;76.80;;;42.70;;
11255;SDS011;5685;52.384;13.420;2023-06-19T13:02:01;76.63;;;42.57;;
11255;SDS011;5685;52.384;13.420;2023-06-19T13:05:04;76.57;;;42.63;;
11255;SDS011;5685;52.384;13.420;2023-06-19T13:08:09;76.87;;;42.67;;
11255;SDS011;5685;52.384;13.420;2023-06-19T13:11:11;76.67;;;42.70;;
11255;SDS011;5685;52.384;13.420;2023-06-19T13:14:14;76.43;;;42.57;;
11255;SDS011;5685;52.384;13.420;2023-06-19T13:17:17;77.23;;;42.83;;
11255;SDS011;5685;52.384;13.420;2023-06-19T13:20:20;76.73;;;42.60;;
11255;SDS011;5685;52.384;13.420;2023-06-19T13:23:24;76.83;;;42.70;;
11255;SDS011;5685;52.384;13.420;2023-06-19T13:26:27;76.70;;;42.60;;
11255;SDS011;5685;52.384;13.420;2023-06-19T13:29:29;76.70;;;42.70;;
11255;SDS011;5685;52.384;13.420;2023-06-19T13:32:32;76.53;;;42.60;;
11255;SDS011;5685;52.384;13.420;2023-06-19T13:35:34;76.37;;;42.57;;
11255;SDS011;5685;52.384;13.420;2023-06-19T13:38:39;76.17;;;42.43;;
11255;SDS011;5685;52.384;13.420;2023-06-19T13:41:41;75.57;;;42.00;;
11255;SDS011;5685;52.384;13.420;2023-06-19T13:44:44;76.70;;;42.70;;
11255;SDS011;5685;52.384;13.420;2023-06-19T13:47:46;75.60;;;42.13;;
11255;SDS011;5685;52.384;13.420;2023-06-19T13:50:49;77.30;;;42.97;;
11255;SDS011;5685;52.384;13.420;2023-06-19T13:53:53;76.43;;;42.57;;
11255;SDS011;5685;52.384;13.420;2023-06-19T13:56:56;75.83;;;42.27;;
11255;SDS011;5685;52.384;13.420;2023-06-19T13:59:58;76.67;;;42.63;;
11255;SDS011;5685;52.384;13.420;2023-06-19T14:03:01;76.50;;;42.67;;
11255;SDS011;5685;52.384;13.420;2023-06-19T14:06:06;76.30;;;42.53;;
11255;SDS011;5685;52.384;13.420;2023-06-19T14:09:11;76.30;;;42.60;;
11255;SDS011;5685;52.384;13.420;2023-06-19T14:12:14;76.70;;;42.73;;
11255;SDS011;5685;52.384;13.420;2023-06-19T14:15:17;77.03;;;43.10;;
11255;SDS011;5685;52.384;13.420;2023-06-19T14:18:20;76.03;;;42.43;;
11255;SDS011;5685;52.384;13.420;2023-06-19T14:21:22;77.03;;;43.10;;
11255;SDS011;5685;52.384;13.420;2023-06-19T14:24:27;76.40;;;42.60;;
11255;SDS011;5685;52.384;13.420;2023-06-19T14:27:30;76.37;;;42.70;;
11255;SDS011;5685;52.384;13.420;2023-06-19T14:30:33;76.50;;;42.70;;
11255;SDS011;5685;52.384;13.420;2023-06-19T14:33:36;77.50;;;43.30;;
11255;SDS011;5685;52.384;13.420;2023-06-19T14:36:39;76.47;;;42.73;;
11255;SDS011;5685;52.384;13.420;2023-06-19T14:39:43;76.77;;;42.97;;
11255;SDS011;5685;52.384;13.420;2023-06-19T14:42:46;76.83;;;42.97;;
11255;SDS011;5685;52.384;13.420;2023-06-19T14:45:49;76.77;;;42.93;;
11255;SDS011;5685;52.384;13.420;2023-06-19T14:48:52;76.90;;;43.03;;
11255;SDS011;5685;52.384;13.420;2023-06-19T14:51:55;75.97;;;42.57;;
11255;SDS011;5685;52.384;13.420;2023-06-19T14:54:59;77.23;;;43.20;;
11255;SDS011;5685;52.384;13.420;2023-06-19T14:58:02;77.00;;;43.10;;
11255;SDS011;5685;52.384;13.420;2023-06-19T15:01:04;76.33;;;42.77;;
11255;SDS011;5685;52.384;13.420;2023-06-19T15:04:07;76.67;;;42.93;;
11255;SDS011;5685;52.384;13.420;2023-06-19T15:07:10;76.00;;;42.53;;
11255;SDS011;5685;52.384;13.420;2023-06-19T15:10:14;77.03;;;43.10;;
11255;SDS011;5685;52.384;13.420;2023-06-19T15:13:16;76.87;;;43.17;;
11255;SDS011;5685;52.384;13.420;2023-06-19T15:16:19;76.97;;;43.03;;
11255;SDS011;5685;52.384;13.420;2023-06-19T15:19:22;77.43;;;43.40;;
11255;SDS011;5685;52.384;13.420;2023-06-19T15:22:25;76.80;;;43.10;;
11255;SDS011;5685;52.384;13.420;2023-06-19T15:25:30;76.70;;;42.97;;
11255;SDS011;5685;52.384;13.420;2023-06-19T15:28:33;77.10;;;43.23;;
11255;SDS011;5685;52.384;13.420;2023-06-19T15:31:35;77.37;;;43.37;;
11255;SDS011;5685;52.384;13.420;2023-06-19T15:34:38;77.43;;;43.43;;
11255;SDS011;5685;52.384;13.420;2023-06-19T15:37:41;76.73;;;43.03;;
11255;SDS011;5685;52.384;13.420;2023-06-19T15:40:45;76.70;;;43.13;;
11255;SDS011;5685;52.384;13.420;2023-06-19T15:43:48;77.10;;;43.23;;
11255;SDS011;5685;52.384;13.420;2023-06-19T15:46:51;77.10;;;43.23;;
11255;SDS011;5685;52.384;13.420;2023-06-19T15:49:53;76.70;;;43.00;;
11255;SDS011;5685;52.384;13.420;2023-06-19T15:52:56;76.90;;;43.13;;
11255;SDS011;5685;52.384;13.420;2023-06-19T15:56:00;76.53;;;43.00;;
11255;SDS011;5685;52.384;13.420;2023-06-19T15:59:03;76.77;;;43.10;;
11255;SDS011;5685;52.384;13.420;2023-06-19T16:02:05;77.13;;;43.43;;
11255;SDS011;5685;52.384;13.420;2023-06-19T16:05:08;77.03;;;43.33;;
11255;SDS011;5685;52.384;13.420;2023-06-19T16:08:11;76.70;;;43.03;;
11255;SDS011;5685;52.384;13.420;2023-06-19T16:11:15;76.83;;;43.20;;
11255;SDS011;5685;52.384;13.420;2023-06-19T16:14:18;77.40;;;43.40;;
11255;SDS011;5685;52.384;13.420;2023-06-19T16:17:20;77.13;;;43.17;;
11255;SDS011;5685;52.384;13.420;2023-06-19T16:20:23;77.33;;;43.43;;
11255;SDS011;5685;52.384;13.420;2023-06-19T16:23:26;76.77;;;43.10;;
11255;SDS011;5685;52.384;13.420;2023-06-19T16:26:30;77.10;;;43.23;;
11255;SDS011;5685;52.384;13.420;2023-06-19T16:29:32;76.80;;;43.00;;
11255;SDS011;5685;52.384;13.420;2023-06-19T16:32:35;77.30;;;43.43;;
11255;SDS011;5685;52.384;13.420;2023-06-19T16:39:33;77.03;;;43.30;;
11255;SDS011;5685;52.384;13.420;2023-06-19T16:42:37;76.53;;;43.03;;
11255;SDS011;5685;52.384;13.420;2023-06-19T16:45:40;76.83;;;43.10;;
11255;SDS011;5685;52.384;13.420;2023-06-19T16:48:42;77.30;;;43.43;;
11255;SDS011;5685;52.384;13.420;2023-06-19T16:51:46;76.87;;;43.27;;
11255;SDS011;5685;52.384;13.420;2023-06-19T16:54:48;77.40;;;43.50;;
11255;SDS011;5685;52.384;13.420;2023-06-19T16:57:52;76.57;;;43.10;;
11255;SDS011;5685;52.384;13.420;2023-06-19T17:00:55;77.20;;;43.50;;
11255;SDS011;5685;52.384;13.420;2023-06-19T17:03:58;76.33;;;43.17;;
11255;SDS011;5685;52.384;13.420;2023-06-19T17:07:00;76.70;;;43.40;;
11255;SDS011;5685;52.384;13.420;2023-06-19T17:10:03;76.73;;;43.43;;
11255;SDS011;5685;52.384;13.420;2023-06-19T17:13:08;77.20;;;43.57;;
11255;SDS011;5685;52.384;13.420;2023-06-19T17:16:10;76.23;;;43.10;;
11255;SDS011;5685;52.384;13.420;2023-06-19T17:19:13;76.43;;;43.33;;
11255;SDS011;5685;52.384;13.420;2023-06-19T17:22:15;76.90;;;43.53;;
11255;SDS011;5685;52.384;13.420;2023-06-19T17:25:18;76.80;;;43.47;;
11255;SDS011;5685;52.384;13.420;2023-06-19T17:28:22;76.30;;;43.33;;
11255;SDS011;5685;52.384;13.420;2023-06-19T17:31:25;76.37;;;43.37;;
11255;SDS011;5685;52.384;13.420;2023-06-19T17:34:27;76.87;;;43.53;;
11255;SDS011;5685;52.384;13.420;2023-06-19T17:37:30;76.67;;;43.47;;
11255;SDS011;5685;52.384;13.420;2023-06-19T17:40:33;75.93;;;43.00;;
11255;SDS011;5685;52.384;13.420;2023-06-19T17:43:37;76.07;;;43.07;;
11255;SDS011;5685;52.384;13.420;2023-06-19T17:46:40;76.60;;;43.37;;
11255;SDS011;5685;52.384;13.420;2023-06-19T17:49:43;76.70;;;43.33;;
11255;SDS011;5685;52.384;13.420;2023-06-19T17:52:47;76.70;;;43.43;;
11255;SDS011;5685;52.384;13.420;2023-06-19T17:55:50;76.50;;;43.40;;